sensor_id;sensor_type;location;lat;lon;timestamp;P1;durP1;ratioP1;P2;durP2;ratioP2
63217;SDS011;49314;48.278;16.378;2023-05-29T00:00:37;9.20;;;8.40;;
63217;SDS011;49314;48.278;16.378;2023-05-29T00:03:02;9.85;;;9.10;;
63217;SDS011;49314;48.278;16.378;2023-05-29T00:05:30;9.02;;;8.30;;
63217;SDS011;49314;48.278;16.378;2023-05-29T00:07:55;9.13;;;8.40;;
63217;SDS011;49314;48.278;16.378;2023-05-29T00:10:20;10.40;;;9.70;;
63217;SDS011;49314;48.278;16.378;2023-05-29T00:12:45;8.93;;;8.23;;
63217;SDS011;49314;48.278;16.378;2023-05-29T00:15:11;11.20;;;10.33;;
63217;SDS011;49314;48.278;16.378;2023-05-29T00:17:37;11.88;;;11.15;;
63217;SDS011;49314;48.278;16.378;2023-05-29T00:20:03;7.22;;;6.72;;
63217;SDS011;49314;48.278;16.378;2023-05-29T00:22:32;11.57;;;10.85;;
63217;SDS011;49314;48.278;16.378;2023-05-29T00:24:57;8.73;;;8.13;;
63217;SDS011;49314;48.278;16.378;2023-05-29T00:27:22;10.35;;;9.65;;
63217;SDS011;49314;48.278;16.378;2023-05-29T00:29:48;12.10;;;11.33;;
63217;SDS011;49314;48.278;16.378;2023-05-29T00:32:13;11.75;;;10.98;;
63217;SDS011;49314;48.278;16.378;2023-05-29T00:34:38;9.35;;;8.80;;
63217;SDS011;49314;48.278;16.378;2023-05-29T00:37:03;10.50;;;9.70;;
63217;SDS011;49314;48.278;16.378;2023-05-29T00:39:29;12.85;;;12.02;;
63217;SDS011;49314;48.278;16.378;2023-05-29T00:41:54;11.07;;;10.35;;
63217;SDS011;49314;48.278;16.378;2023-05-29T00:44:20;12.00;;;11.10;;
63217;SDS011;49314;48.278;16.378;2023-05-29T00:46:46;8.73;;;8.02;;
63217;SDS011;49314;48.278;16.378;2023-05-29T00:49:11;13.95;;;13.25;;
63217;SDS011;49314;48.278;16.378;2023-05-29T00:51:37;10.77;;;9.90;;
63217;SDS011;49314;48.278;16.378;2023-05-29T00:54:02;12.50;;;11.52;;
63217;SDS011;49314;48.278;16.378;2023-05-29T00:56:29;11.40;;;10.55;;
63217;SDS011;49314;48.278;16.378;2023-05-29T00:58:54;11.93;;;10.95;;
63217;SDS011;49314;48.278;16.378;2023-05-29T01:01:19;10.98;;;10.27;;
63217;SDS011;49314;48.278;16.378;2023-05-29T01:03:46;10.13;;;9.50;;
63217;SDS011;49314;48.278;16.378;2023-05-29T01:06:13;12.70;;;11.63;;
63217;SDS011;49314;48.278;16.378;2023-05-29T01:08:39;11.00;;;10.15;;
63217;SDS011;49314;48.278;16.378;2023-05-29T01:11:48;11.13;;;10.32;;
63217;SDS011;49314;48.278;16.378;2023-05-29T01:13:53;9.95;;;9.05;;
63217;SDS011;49314;48.278;16.378;2023-05-29T01:16:27;11.68;;;10.93;;
63217;SDS011;49314;48.278;16.378;2023-05-29T01:18:57;16.15;;;15.35;;
63217;SDS011;49314;48.278;16.378;2023-05-29T01:29:10;13.95;;;13.02;;
63217;SDS011;49314;48.278;16.378;2023-05-29T01:31:37;12.55;;;11.85;;
63217;SDS011;49314;48.278;16.378;2023-05-29T01:34:04;9.65;;;9.02;;
63217;SDS011;49314;48.278;16.378;2023-05-29T01:36:29;12.20;;;11.32;;
63217;SDS011;49314;48.278;16.378;2023-05-29T01:38:56;13.38;;;12.18;;
63217;SDS011;49314;48.278;16.378;2023-05-29T01:41:22;13.02;;;12.13;;
63217;SDS011;49314;48.278;16.378;2023-05-29T01:43:48;12.77;;;11.68;;
63217;SDS011;49314;48.278;16.378;2023-05-29T01:46:14;13.32;;;12.45;;
63217;SDS011;49314;48.278;16.378;2023-05-29T01:48:40;12.05;;;11.15;;
63217;SDS011;49314;48.278;16.378;2023-05-29T01:51:06;12.23;;;11.23;;
63217;SDS011;49314;48.278;16.378;2023-05-29T01:53:32;13.88;;;12.98;;
63217;SDS011;49314;48.278;16.378;2023-05-29T01:55:57;11.93;;;11.02;;
63217;SDS011;49314;48.278;16.378;2023-05-29T01:58:22;11.68;;;10.77;;
63217;SDS011;49314;48.278;16.378;2023-05-29T02:00:48;13.25;;;12.45;;
63217;SDS011;49314;48.278;16.378;2023-05-29T02:03:13;14.05;;;13.15;;
63217;SDS011;49314;48.278;16.378;2023-05-29T02:05:38;10.50;;;9.70;;
63217;SDS011;49314;48.278;16.378;2023-05-29T02:08:03;12.57;;;11.50;;
63217;SDS011;49314;48.278;16.378;2023-05-29T02:10:29;12.15;;;11.45;;
63217;SDS011;49314;48.278;16.378;2023-05-29T02:12:55;9.65;;;8.88;;
63217;SDS011;49314;48.278;16.378;2023-05-29T02:15:20;13.55;;;12.52;;
63217;SDS011;49314;48.278;16.378;2023-05-29T02:17:45;10.73;;;10.02;;
63217;SDS011;49314;48.278;16.378;2023-05-29T02:20:11;13.93;;;13.23;;
63217;SDS011;49314;48.278;16.378;2023-05-29T02:22:36;12.52;;;11.48;;
63217;SDS011;49314;48.278;16.378;2023-05-29T02:25:02;13.05;;;12.00;;
63217;SDS011;49314;48.278;16.378;2023-05-29T02:27:27;12.40;;;11.70;;
63217;SDS011;49314;48.278;16.378;2023-05-29T02:29:52;13.45;;;12.52;;
63217;SDS011;49314;48.278;16.378;2023-05-29T02:32:17;13.68;;;12.80;;
63217;SDS011;49314;48.278;16.378;2023-05-29T02:34:43;12.45;;;11.60;;
63217;SDS011;49314;48.278;16.378;2023-05-29T02:37:08;14.40;;;13.45;;
63217;SDS011;49314;48.278;16.378;2023-05-29T02:39:33;11.23;;;10.52;;
63217;SDS011;49314;48.278;16.378;2023-05-29T02:41:59;14.75;;;13.85;;
63217;SDS011;49314;48.278;16.378;2023-05-29T02:44:24;12.88;;;12.07;;
63217;SDS011;49314;48.278;16.378;2023-05-29T02:46:49;12.35;;;11.38;;
63217;SDS011;49314;48.278;16.378;2023-05-29T02:49:15;12.60;;;11.75;;
63217;SDS011;49314;48.278;16.378;2023-05-29T02:51:40;11.32;;;10.55;;
63217;SDS011;49314;48.278;16.378;2023-05-29T02:54:05;11.98;;;11.07;;
63217;SDS011;49314;48.278;16.378;2023-05-29T02:56:30;12.93;;;12.02;;
63217;SDS011;49314;48.278;16.378;2023-05-29T02:58:56;14.40;;;13.35;;
63217;SDS011;49314;48.278;16.378;2023-05-29T03:01:21;11.95;;;11.15;;
63217;SDS011;49314;48.278;16.378;2023-05-29T03:03:46;9.20;;;8.30;;
63217;SDS011;49314;48.278;16.378;2023-05-29T03:06:11;15.23;;;14.30;;
63217;SDS011;49314;48.278;16.378;2023-05-29T03:08:41;12.93;;;12.18;;
63217;SDS011;49314;48.278;16.378;2023-05-29T03:11:09;13.63;;;12.57;;
63217;SDS011;49314;48.278;16.378;2023-05-29T03:13:38;12.70;;;11.88;;
63217;SDS011;49314;48.278;16.378;2023-05-29T03:16:03;16.58;;;15.65;;
63217;SDS011;49314;48.278;16.378;2023-05-29T03:18:29;13.55;;;12.65;;
63217;SDS011;49314;48.278;16.378;2023-05-29T03:20:54;11.43;;;10.63;;
63217;SDS011;49314;48.278;16.378;2023-05-29T03:23:20;15.30;;;14.27;;
63217;SDS011;49314;48.278;16.378;2023-05-29T03:25:45;16.65;;;15.60;;
63217;SDS011;49314;48.278;16.378;2023-05-29T03:28:10;12.07;;;11.20;;
63217;SDS011;49314;48.278;16.378;2023-05-29T03:30:36;10.70;;;9.82;;
63217;SDS011;49314;48.278;16.378;2023-05-29T03:33:01;15.35;;;14.27;;
63217;SDS011;49314;48.278;16.378;2023-05-29T03:35:29;12.07;;;11.18;;
63217;SDS011;49314;48.278;16.378;2023-05-29T03:37:54;16.08;;;15.10;;
63217;SDS011;49314;48.278;16.378;2023-05-29T03:40:19;15.55;;;14.65;;
63217;SDS011;49314;48.278;16.378;2023-05-29T03:42:45;18.30;;;17.25;;
63217;SDS011;49314;48.278;16.378;2023-05-29T03:45:10;15.98;;;14.75;;
63217;SDS011;49314;48.278;16.378;2023-05-29T03:47:35;11.15;;;10.23;;
63217;SDS011;49314;48.278;16.378;2023-05-29T03:50:01;15.38;;;14.13;;
63217;SDS011;49314;48.278;16.378;2023-05-29T03:52:26;12.02;;;11.13;;
63217;SDS011;49314;48.278;16.378;2023-05-29T03:54:51;12.00;;;11.02;;
63217;SDS011;49314;48.278;16.378;2023-05-29T03:57:17;13.02;;;12.00;;
63217;SDS011;49314;48.278;16.378;2023-05-29T03:59:42;11.90;;;11.00;;
63217;SDS011;49314;48.278;16.378;2023-05-29T04:02:07;13.60;;;12.63;;
63217;SDS011;49314;48.278;16.378;2023-05-29T04:04:33;14.82;;;13.60;;
63217;SDS011;49314;48.278;16.378;2023-05-29T04:06:58;13.50;;;12.50;;
63217;SDS011;49314;48.278;16.378;2023-05-29T04:09:23;11.73;;;10.50;;
63217;SDS011;49314;48.278;16.378;2023-05-29T04:11:49;15.13;;;13.93;;
63217;SDS011;49314;48.278;16.378;2023-05-29T04:14:16;15.40;;;14.32;;
63217;SDS011;49314;48.278;16.378;2023-05-29T04:16:42;12.35;;;11.40;;
63217;SDS011;49314;48.278;16.378;2023-05-29T04:19:07;14.73;;;13.68;;
63217;SDS011;49314;48.278;16.378;2023-05-29T04:21:32;12.35;;;11.45;;
63217;SDS011;49314;48.278;16.378;2023-05-29T04:23:58;17.92;;;16.85;;
63217;SDS011;49314;48.278;16.378;2023-05-29T04:26:23;14.35;;;12.95;;
63217;SDS011;49314;48.278;16.378;2023-05-29T04:28:50;9.18;;;8.27;;
63217;SDS011;49314;48.278;16.378;2023-05-29T04:31:17;13.70;;;11.98;;
63217;SDS011;49314;48.278;16.378;2023-05-29T04:33:42;12.75;;;11.70;;
63217;SDS011;49314;48.278;16.378;2023-05-29T04:36:10;12.25;;;11.15;;
63217;SDS011;49314;48.278;16.378;2023-05-29T04:38:36;12.18;;;11.07;;
63217;SDS011;49314;48.278;16.378;2023-05-29T04:41:02;11.60;;;10.80;;
63217;SDS011;49314;48.278;16.378;2023-05-29T04:43:27;12.75;;;11.82;;
63217;SDS011;49314;48.278;16.378;2023-05-29T04:45:53;10.45;;;9.55;;
63217;SDS011;49314;48.278;16.378;2023-05-29T04:48:18;11.85;;;11.05;;
63217;SDS011;49314;48.278;16.378;2023-05-29T04:50:43;10.88;;;9.98;;
63217;SDS011;49314;48.278;16.378;2023-05-29T04:53:09;11.75;;;10.85;;
63217;SDS011;49314;48.278;16.378;2023-05-29T04:55:35;11.75;;;10.65;;
63217;SDS011;49314;48.278;16.378;2023-05-29T04:58:01;10.43;;;9.52;;
63217;SDS011;49314;48.278;16.378;2023-05-29T05:00:26;12.35;;;11.30;;
63217;SDS011;49314;48.278;16.378;2023-05-29T05:02:51;9.00;;;8.30;;
63217;SDS011;49314;48.278;16.378;2023-05-29T05:05:17;10.63;;;9.63;;
63217;SDS011;49314;48.278;16.378;2023-05-29T05:07:42;10.32;;;9.32;;
63217;SDS011;49314;48.278;16.378;2023-05-29T05:10:07;8.93;;;8.15;;
63217;SDS011;49314;48.278;16.378;2023-05-29T05:12:33;8.85;;;7.95;;
63217;SDS011;49314;48.278;16.378;2023-05-29T05:14:59;9.65;;;8.68;;
63217;SDS011;49314;48.278;16.378;2023-05-29T05:17:24;11.68;;;9.25;;
63217;SDS011;49314;48.278;16.378;2023-05-29T05:19:49;9.60;;;8.70;;
63217;SDS011;49314;48.278;16.378;2023-05-29T05:22:15;8.52;;;7.75;;
63217;SDS011;49314;48.278;16.378;2023-05-29T05:24:41;10.88;;;9.85;;
63217;SDS011;49314;48.278;16.378;2023-05-29T05:27:06;10.15;;;9.15;;
63217;SDS011;49314;48.278;16.378;2023-05-29T05:29:31;7.85;;;7.15;;
63217;SDS011;49314;48.278;16.378;2023-05-29T05:31:57;8.18;;;7.47;;
63217;SDS011;49314;48.278;16.378;2023-05-29T05:34:22;9.60;;;7.20;;
63217;SDS011;49314;48.278;16.378;2023-05-29T05:36:47;8.80;;;7.93;;
63217;SDS011;49314;48.278;16.378;2023-05-29T05:39:14;8.80;;;7.35;;
63217;SDS011;49314;48.278;16.378;2023-05-29T05:41:39;8.55;;;7.55;;
63217;SDS011;49314;48.278;16.378;2023-05-29T05:44:04;8.65;;;7.95;;
63217;SDS011;49314;48.278;16.378;2023-05-29T05:46:30;7.45;;;6.85;;
63217;SDS011;49314;48.278;16.378;2023-05-29T05:48:56;7.97;;;7.28;;
63217;SDS011;49314;48.278;16.378;2023-05-29T05:51:25;7.13;;;6.43;;
63217;SDS011;49314;48.278;16.378;2023-05-29T05:53:51;8.75;;;6.28;;
63217;SDS011;49314;48.278;16.378;2023-05-29T05:56:17;8.80;;;7.28;;
63217;SDS011;49314;48.278;16.378;2023-05-29T05:58:42;7.05;;;6.53;;
63217;SDS011;49314;48.278;16.378;2023-05-29T06:01:07;6.57;;;5.97;;
63217;SDS011;49314;48.278;16.378;2023-05-29T06:03:33;6.30;;;5.80;;
63217;SDS011;49314;48.278;16.378;2023-05-29T06:05:59;6.05;;;5.43;;
63217;SDS011;49314;48.278;16.378;2023-05-29T06:08:24;6.63;;;5.97;;
63217;SDS011;49314;48.278;16.378;2023-05-29T06:10:50;7.32;;;6.50;;
63217;SDS011;49314;48.278;16.378;2023-05-29T06:13:15;8.10;;;6.70;;
63217;SDS011;49314;48.278;16.378;2023-05-29T06:15:42;6.60;;;5.97;;
63217;SDS011;49314;48.278;16.378;2023-05-29T06:18:07;8.18;;;6.40;;
63217;SDS011;49314;48.278;16.378;2023-05-29T06:20:32;6.20;;;5.57;;
63217;SDS011;49314;48.278;16.378;2023-05-29T06:22:58;7.60;;;5.90;;
63217;SDS011;49314;48.278;16.378;2023-05-29T06:25:23;5.88;;;5.22;;
63217;SDS011;49314;48.278;16.378;2023-05-29T06:27:57;7.45;;;5.22;;
63217;SDS011;49314;48.278;16.378;2023-05-29T06:30:22;9.03;;;5.07;;
63217;SDS011;49314;48.278;16.378;2023-05-29T06:32:47;5.93;;;5.20;;
63217;SDS011;49314;48.278;16.378;2023-05-29T06:35:13;7.03;;;5.30;;
63217;SDS011;49314;48.278;16.378;2023-05-29T06:37:38;6.38;;;5.78;;
63217;SDS011;49314;48.278;16.378;2023-05-29T06:40:03;5.53;;;5.03;;
63217;SDS011;49314;48.278;16.378;2023-05-29T06:42:29;5.90;;;4.72;;
63217;SDS011;49314;48.278;16.378;2023-05-29T06:44:55;5.53;;;3.83;;
63217;SDS011;49314;48.278;16.378;2023-05-29T06:47:20;6.43;;;5.30;;
63217;SDS011;49314;48.278;16.378;2023-05-29T06:49:45;6.03;;;3.97;;
63217;SDS011;49314;48.278;16.378;2023-05-29T06:52:10;7.17;;;5.07;;
63217;SDS011;49314;48.278;16.378;2023-05-29T06:54:36;6.72;;;4.72;;
63217;SDS011;49314;48.278;16.378;2023-05-29T06:57:01;7.50;;;4.60;;
63217;SDS011;49314;48.278;16.378;2023-05-29T06:59:26;5.57;;;4.60;;
63217;SDS011;49314;48.278;16.378;2023-05-29T07:01:51;4.60;;;3.80;;
63217;SDS011;49314;48.278;16.378;2023-05-29T07:04:17;5.17;;;4.30;;
63217;SDS011;49314;48.278;16.378;2023-05-29T07:06:42;10.43;;;4.00;;
63217;SDS011;49314;48.278;16.378;2023-05-29T07:09:07;7.75;;;4.10;;
63217;SDS011;49314;48.278;16.378;2023-05-29T07:11:33;4.07;;;3.67;;
63217;SDS011;49314;48.278;16.378;2023-05-29T07:13:58;5.30;;;3.83;;
63217;SDS011;49314;48.278;16.378;2023-05-29T07:16:23;5.10;;;4.60;;
63217;SDS011;49314;48.278;16.378;2023-05-29T07:18:49;6.57;;;3.87;;
63217;SDS011;49314;48.278;16.378;2023-05-29T07:21:14;4.97;;;4.55;;
63217;SDS011;49314;48.278;16.378;2023-05-29T07:23:39;5.32;;;3.80;;
63217;SDS011;49314;48.278;16.378;2023-05-29T07:26:05;5.28;;;3.75;;
63217;SDS011;49314;48.278;16.378;2023-05-29T07:28:30;6.65;;;4.32;;
63217;SDS011;49314;48.278;16.378;2023-05-29T07:30:56;5.05;;;3.78;;
63217;SDS011;49314;48.278;16.378;2023-05-29T07:33:21;5.05;;;4.20;;
63217;SDS011;49314;48.278;16.378;2023-05-29T07:35:47;4.00;;;3.60;;
63217;SDS011;49314;48.278;16.378;2023-05-29T07:38:12;7.53;;;3.20;;
63217;SDS011;49314;48.278;16.378;2023-05-29T07:40:37;4.60;;;3.60;;
63217;SDS011;49314;48.278;16.378;2023-05-29T07:43:03;6.43;;;3.70;;
63217;SDS011;49314;48.278;16.378;2023-05-29T07:45:28;4.77;;;3.73;;
63217;SDS011;49314;48.278;16.378;2023-05-29T07:47:53;4.57;;;3.43;;
63217;SDS011;49314;48.278;16.378;2023-05-29T07:50:19;4.15;;;3.55;;
63217;SDS011;49314;48.278;16.378;2023-05-29T07:52:45;6.85;;;3.78;;
63217;SDS011;49314;48.278;16.378;2023-05-29T07:55:11;5.30;;;3.50;;
63217;SDS011;49314;48.278;16.378;2023-05-29T07:57:36;6.60;;;3.90;;
63217;SDS011;49314;48.278;16.378;2023-05-29T08:00:02;3.65;;;3.15;;
63217;SDS011;49314;48.278;16.378;2023-05-29T08:02:33;6.00;;;3.47;;
63217;SDS011;49314;48.278;16.378;2023-05-29T08:04:58;5.30;;;4.15;;
63217;SDS011;49314;48.278;16.378;2023-05-29T08:07:23;4.67;;;3.83;;
63217;SDS011;49314;48.278;16.378;2023-05-29T08:09:49;9.40;;;4.27;;
63217;SDS011;49314;48.278;16.378;2023-05-29T08:12:14;5.22;;;3.50;;
63217;SDS011;49314;48.278;16.378;2023-05-29T08:14:39;6.25;;;3.50;;
63217;SDS011;49314;48.278;16.378;2023-05-29T08:17:05;5.87;;;4.13;;
63217;SDS011;49314;48.278;16.378;2023-05-29T08:19:31;5.15;;;3.78;;
63217;SDS011;49314;48.278;16.378;2023-05-29T08:21:56;6.15;;;3.30;;
63217;SDS011;49314;48.278;16.378;2023-05-29T08:24:21;5.70;;;3.53;;
63217;SDS011;49314;48.278;16.378;2023-05-29T08:26:47;5.00;;;3.97;;
63217;SDS011;49314;48.278;16.378;2023-05-29T08:29:12;6.32;;;3.88;;
63217;SDS011;49314;48.278;16.378;2023-05-29T08:31:37;6.17;;;2.90;;
63217;SDS011;49314;48.278;16.378;2023-05-29T08:34:03;8.77;;;3.67;;
63217;SDS011;49314;48.278;16.378;2023-05-29T08:36:28;5.93;;;3.60;;
63217;SDS011;49314;48.278;16.378;2023-05-29T08:38:53;5.47;;;3.57;;
63217;SDS011;49314;48.278;16.378;2023-05-29T08:41:25;5.15;;;4.10;;
63217;SDS011;49314;48.278;16.378;2023-05-29T08:43:51;6.15;;;3.80;;
63217;SDS011;49314;48.278;16.378;2023-05-29T08:46:17;6.40;;;4.05;;
63217;SDS011;49314;48.278;16.378;2023-05-29T08:48:43;6.32;;;3.40;;
63217;SDS011;49314;48.278;16.378;2023-05-29T08:51:12;3.10;;;2.83;;
63217;SDS011;49314;48.278;16.378;2023-05-29T08:53:38;4.25;;;3.65;;
63217;SDS011;49314;48.278;16.378;2023-05-29T08:56:04;5.40;;;3.67;;
63217;SDS011;49314;48.278;16.378;2023-05-29T08:58:29;6.38;;;3.42;;
63217;SDS011;49314;48.278;16.378;2023-05-29T09:00:55;4.78;;;3.17;;
63217;SDS011;49314;48.278;16.378;2023-05-29T09:03:21;3.55;;;3.22;;
63217;SDS011;49314;48.278;16.378;2023-05-29T09:05:47;9.45;;;3.50;;
63217;SDS011;49314;48.278;16.378;2023-05-29T09:08:13;6.45;;;3.33;;
63217;SDS011;49314;48.278;16.378;2023-05-29T09:10:41;5.82;;;3.30;;
63217;SDS011;49314;48.278;16.378;2023-05-29T09:13:06;4.35;;;3.45;;
63217;SDS011;49314;48.278;16.378;2023-05-29T09:15:32;3.50;;;3.20;;
63217;SDS011;49314;48.278;16.378;2023-05-29T09:17:58;8.90;;;3.20;;
63217;SDS011;49314;48.278;16.378;2023-05-29T09:20:23;7.18;;;3.55;;
63217;SDS011;49314;48.278;16.378;2023-05-29T09:22:53;6.32;;;3.33;;
63217;SDS011;49314;48.278;16.378;2023-05-29T09:25:20;3.50;;;3.20;;
63217;SDS011;49314;48.278;16.378;2023-05-29T09:27:47;3.80;;;3.30;;
63217;SDS011;49314;48.278;16.378;2023-05-29T09:30:15;3.45;;;3.00;;
63217;SDS011;49314;48.278;16.378;2023-05-29T09:32:55;5.28;;;3.28;;
63217;SDS011;49314;48.278;16.378;2023-05-29T09:35:20;3.85;;;3.50;;
63217;SDS011;49314;48.278;16.378;2023-05-29T09:37:46;4.45;;;3.53;;
63217;SDS011;49314;48.278;16.378;2023-05-29T09:40:11;5.50;;;3.53;;
63217;SDS011;49314;48.278;16.378;2023-05-29T09:42:37;4.68;;;3.75;;
63217;SDS011;49314;48.278;16.378;2023-05-29T09:45:02;3.60;;;2.90;;
63217;SDS011;49314;48.278;16.378;2023-05-29T09:47:29;3.38;;;3.08;;
63217;SDS011;49314;48.278;16.378;2023-05-29T09:49:57;6.00;;;3.13;;
63217;SDS011;49314;48.278;16.378;2023-05-29T09:52:25;4.18;;;3.75;;
63217;SDS011;49314;48.278;16.378;2023-05-29T09:54:51;5.22;;;3.53;;
63217;SDS011;49314;48.278;16.378;2023-05-29T09:57:17;4.45;;;3.15;;
63217;SDS011;49314;48.278;16.378;2023-05-29T09:59:43;6.50;;;2.67;;
63217;SDS011;49314;48.278;16.378;2023-05-29T10:02:10;4.75;;;3.17;;
63217;SDS011;49314;48.278;16.378;2023-05-29T10:04:37;4.00;;;3.50;;
63217;SDS011;49314;48.278;16.378;2023-05-29T10:07:05;3.65;;;3.05;;
63217;SDS011;49314;48.278;16.378;2023-05-29T10:09:32;5.38;;;3.00;;
63217;SDS011;49314;48.278;16.378;2023-05-29T10:11:58;3.72;;;3.28;;
63217;SDS011;49314;48.278;16.378;2023-05-29T10:14:27;3.50;;;3.13;;
63217;SDS011;49314;48.278;16.378;2023-05-29T10:16:56;5.93;;;3.10;;
63217;SDS011;49314;48.278;16.378;2023-05-29T10:19:27;6.00;;;3.40;;
63217;SDS011;49314;48.278;16.378;2023-05-29T10:21:54;5.00;;;2.67;;
63217;SDS011;49314;48.278;16.378;2023-05-29T10:24:21;4.70;;;3.03;;
63217;SDS011;49314;48.278;16.378;2023-05-29T10:26:47;5.60;;;3.00;;
63217;SDS011;49314;48.278;16.378;2023-05-29T10:29:21;4.65;;;3.20;;
63217;SDS011;49314;48.278;16.378;2023-05-29T10:34:41;3.83;;;2.72;;
63217;SDS011;49314;48.278;16.378;2023-05-29T10:37:23;4.28;;;2.83;;
63217;SDS011;49314;48.278;16.378;2023-05-29T10:44:59;5.90;;;3.30;;
63217;SDS011;49314;48.278;16.378;2023-05-29T10:47:24;4.03;;;3.45;;
63217;SDS011;49314;48.278;16.378;2023-05-29T10:49:50;4.20;;;3.23;;
63217;SDS011;49314;48.278;16.378;2023-05-29T10:52:18;6.13;;;3.55;;
63217;SDS011;49314;48.278;16.378;2023-05-29T10:54:50;5.30;;;2.97;;
63217;SDS011;49314;48.278;16.378;2023-05-29T10:57:17;4.28;;;3.88;;
63217;SDS011;49314;48.278;16.378;2023-05-29T10:59:44;4.35;;;3.03;;
63217;SDS011;49314;48.278;16.378;2023-05-29T11:02:09;3.47;;;2.92;;
63217;SDS011;49314;48.278;16.378;2023-05-29T11:04:35;3.83;;;3.53;;
63217;SDS011;49314;48.278;16.378;2023-05-29T11:07:01;7.82;;;2.95;;
63217;SDS011;49314;48.278;16.378;2023-05-29T11:09:34;5.40;;;3.28;;
63217;SDS011;49314;48.278;16.378;2023-05-29T11:15:08;5.78;;;2.88;;
63217;SDS011;49314;48.278;16.378;2023-05-29T11:20:04;6.10;;;3.45;;
63217;SDS011;49314;48.278;16.378;2023-05-29T11:22:59;2.78;;;2.58;;
63217;SDS011;49314;48.278;16.378;2023-05-29T11:25:20;3.60;;;3.30;;
63217;SDS011;49314;48.278;16.378;2023-05-29T11:27:45;3.83;;;3.05;;
63217;SDS011;49314;48.278;16.378;2023-05-29T11:30:11;5.70;;;3.63;;
63217;SDS011;49314;48.278;16.378;2023-05-29T11:32:36;3.88;;;2.97;;
63217;SDS011;49314;48.278;16.378;2023-05-29T11:35:08;4.53;;;3.17;;
63217;SDS011;49314;48.278;16.378;2023-05-29T11:37:35;3.45;;;3.13;;
63217;SDS011;49314;48.278;16.378;2023-05-29T11:40:02;11.00;;;4.25;;
63217;SDS011;49314;48.278;16.378;2023-05-29T11:42:28;3.55;;;2.85;;
63217;SDS011;49314;48.278;16.378;2023-05-29T11:44:54;3.25;;;2.92;;
63217;SDS011;49314;48.278;16.378;2023-05-29T11:47:19;3.20;;;2.88;;
63217;SDS011;49314;48.278;16.378;2023-05-29T11:49:47;4.20;;;3.45;;
63217;SDS011;49314;48.278;16.378;2023-05-29T11:52:13;5.13;;;3.67;;
63217;SDS011;49314;48.278;16.378;2023-05-29T11:54:42;4.60;;;3.70;;
63217;SDS011;49314;48.278;16.378;2023-05-29T11:57:17;5.07;;;3.80;;
63217;SDS011;49314;48.278;16.378;2023-05-29T11:59:42;4.03;;;3.25;;
63217;SDS011;49314;48.278;16.378;2023-05-29T12:02:07;4.77;;;4.17;;
63217;SDS011;49314;48.278;16.378;2023-05-29T12:04:33;3.90;;;3.60;;
63217;SDS011;49314;48.278;16.378;2023-05-29T12:06:58;4.20;;;3.13;;
63217;SDS011;49314;48.278;16.378;2023-05-29T12:09:27;4.22;;;3.63;;
63217;SDS011;49314;48.278;16.378;2023-05-29T12:11:53;4.57;;;3.85;;
63217;SDS011;49314;48.278;16.378;2023-05-29T12:14:18;3.67;;;3.40;;
63217;SDS011;49314;48.278;16.378;2023-05-29T12:16:43;8.57;;;4.03;;
63217;SDS011;49314;48.278;16.378;2023-05-29T12:19:09;6.30;;;3.80;;
63217;SDS011;49314;48.278;16.378;2023-05-29T12:21:34;3.75;;;3.35;;
63217;SDS011;49314;48.278;16.378;2023-05-29T12:24:00;5.97;;;3.70;;
63217;SDS011;49314;48.278;16.378;2023-05-29T12:26:26;3.80;;;3.40;;
63217;SDS011;49314;48.278;16.378;2023-05-29T12:28:51;4.60;;;3.60;;
63217;SDS011;49314;48.278;16.378;2023-05-29T12:31:28;6.93;;;3.60;;
63217;SDS011;49314;48.278;16.378;2023-05-29T12:33:58;5.70;;;3.58;;
63217;SDS011;49314;48.278;16.378;2023-05-29T12:36:25;4.30;;;3.90;;
63217;SDS011;49314;48.278;16.378;2023-05-29T12:38:51;3.50;;;3.13;;
63217;SDS011;49314;48.278;16.378;2023-05-29T12:41:35;4.65;;;3.90;;
63217;SDS011;49314;48.278;16.378;2023-05-29T12:44:02;3.67;;;3.08;;
63217;SDS011;49314;48.278;16.378;2023-05-29T12:46:28;4.32;;;3.50;;
63217;SDS011;49314;48.278;16.378;2023-05-29T12:49:10;3.75;;;3.20;;
63217;SDS011;49314;48.278;16.378;2023-05-29T12:51:36;4.97;;;3.67;;
63217;SDS011;49314;48.278;16.378;2023-05-29T12:54:05;4.13;;;3.60;;
63217;SDS011;49314;48.278;16.378;2023-05-29T12:56:30;4.60;;;3.50;;
63217;SDS011;49314;48.278;16.378;2023-05-29T12:58:55;3.90;;;3.33;;
63217;SDS011;49314;48.278;16.378;2023-05-29T13:01:21;5.07;;;3.72;;
63217;SDS011;49314;48.278;16.378;2023-05-29T13:03:47;6.72;;;3.33;;
63217;SDS011;49314;48.278;16.378;2023-05-29T13:06:12;4.83;;;3.40;;
63217;SDS011;49314;48.278;16.378;2023-05-29T13:08:37;4.03;;;3.33;;
63217;SDS011;49314;48.278;16.378;2023-05-29T13:11:02;3.60;;;3.30;;
63217;SDS011;49314;48.278;16.378;2023-05-29T13:13:28;3.53;;;3.23;;
63217;SDS011;49314;48.278;16.378;2023-05-29T13:15:53;5.27;;;3.10;;
63217;SDS011;49314;48.278;16.378;2023-05-29T13:18:18;3.60;;;3.30;;
63217;SDS011;49314;48.278;16.378;2023-05-29T13:20:43;6.70;;;3.57;;
63217;SDS011;49314;48.278;16.378;2023-05-29T13:23:09;3.93;;;3.20;;
63217;SDS011;49314;48.278;16.378;2023-05-29T13:25:34;5.57;;;3.57;;
63217;SDS011;49314;48.278;16.378;2023-05-29T13:27:59;6.93;;;4.18;;
63217;SDS011;49314;48.278;16.378;2023-05-29T13:30:25;4.33;;;4.03;;
63217;SDS011;49314;48.278;16.378;2023-05-29T13:32:51;3.80;;;3.50;;
63217;SDS011;49314;48.278;16.378;2023-05-29T13:35:17;3.47;;;3.17;;
63217;SDS011;49314;48.278;16.378;2023-05-29T13:37:42;3.90;;;3.23;;
63217;SDS011;49314;48.278;16.378;2023-05-29T13:40:08;5.95;;;4.10;;
63217;SDS011;49314;48.278;16.378;2023-05-29T13:42:38;4.13;;;3.72;;
63217;SDS011;49314;48.278;16.378;2023-05-29T13:45:04;4.88;;;4.38;;
63217;SDS011;49314;48.278;16.378;2023-05-29T13:47:29;4.20;;;3.80;;
63217;SDS011;49314;48.278;16.378;2023-05-29T13:49:57;4.50;;;4.10;;
63217;SDS011;49314;48.278;16.378;2023-05-29T13:52:22;3.88;;;3.47;;
63217;SDS011;49314;48.278;16.378;2023-05-29T13:54:47;4.53;;;4.00;;
63217;SDS011;49314;48.278;16.378;2023-05-29T13:57:13;4.53;;;3.80;;
63217;SDS011;49314;48.278;16.378;2023-05-29T13:59:38;5.00;;;3.83;;
63217;SDS011;49314;48.278;16.378;2023-05-29T14:02:03;4.50;;;4.10;;
63217;SDS011;49314;48.278;16.378;2023-05-29T14:04:29;4.07;;;3.67;;
63217;SDS011;49314;48.278;16.378;2023-05-29T14:06:55;4.57;;;4.18;;
63217;SDS011;49314;48.278;16.378;2023-05-29T14:09:21;4.75;;;4.35;;
63217;SDS011;49314;48.278;16.378;2023-05-29T14:11:52;4.93;;;4.15;;
63217;SDS011;49314;48.278;16.378;2023-05-29T14:14:18;6.45;;;4.22;;
63217;SDS011;49314;48.278;16.378;2023-05-29T14:16:43;4.60;;;4.20;;
63217;SDS011;49314;48.278;16.378;2023-05-29T14:19:09;4.70;;;4.17;;
63217;SDS011;49314;48.278;16.378;2023-05-29T14:21:34;5.13;;;4.13;;
63217;SDS011;49314;48.278;16.378;2023-05-29T14:24:00;5.90;;;4.30;;
63217;SDS011;49314;48.278;16.378;2023-05-29T14:26:26;5.07;;;4.57;;
63217;SDS011;49314;48.278;16.378;2023-05-29T14:28:51;4.87;;;4.47;;
63217;SDS011;49314;48.278;16.378;2023-05-29T14:31:16;12.20;;;11.30;;
63217;SDS011;49314;48.278;16.378;2023-05-29T14:33:41;9.57;;;8.77;;
63217;SDS011;49314;48.278;16.378;2023-05-29T14:36:07;5.53;;;4.73;;
63217;SDS011;49314;48.278;16.378;2023-05-29T14:38:32;5.45;;;4.22;;
63217;SDS011;49314;48.278;16.378;2023-05-29T14:40:57;17.52;;;16.23;;